sensor_id;sensor_type;location;lat;lon;timestamp;P1;durP1;ratioP1;P2;durP2;ratioP2
52274;SDS011;38228;50.940;4.024;2023-09-08T00:00:56;16.20;;;11.48;;
52274;SDS011;38228;50.940;4.024;2023-09-08T00:03:22;14.52;;;10.82;;
52274;SDS011;38228;50.940;4.024;2023-09-08T00:05:48;15.02;;;10.85;;
52274;SDS011;38228;50.940;4.024;2023-09-08T00:08:14;12.50;;;10.65;;
52274;SDS011;38228;50.940;4.024;2023-09-08T00:10:40;12.43;;;10.35;;
52274;SDS011;38228;50.940;4.024;2023-09-08T00:13:06;16.90;;;10.35;;
52274;SDS011;38228;50.940;4.024;2023-09-08T00:15:35;12.73;;;10.32;;
52274;SDS011;38228;50.940;4.024;2023-09-08T00:18:01;14.30;;;10.43;;
52274;SDS011;38228;50.940;4.024;2023-09-08T00:20:27;14.48;;;10.88;;
52274;SDS011;38228;50.940;4.024;2023-09-08T00:22:53;14.18;;;10.52;;
52274;SDS011;38228;50.940;4.024;2023-09-08T00:25:19;14.57;;;10.38;;
52274;SDS011;38228;50.940;4.024;2023-09-08T00:27:44;16.63;;;10.73;;
52274;SDS011;38228;50.940;4.024;2023-09-08T00:30:10;15.98;;;10.45;;
52274;SDS011;38228;50.940;4.024;2023-09-08T00:32:36;12.52;;;10.43;;
52274;SDS011;38228;50.940;4.024;2023-09-08T00:35:05;15.48;;;10.90;;
52274;SDS011;38228;50.940;4.024;2023-09-08T00:37:32;14.65;;;10.85;;
52274;SDS011;38228;50.940;4.024;2023-09-08T00:39:57;16.50;;;10.45;;
52274;SDS011;38228;50.940;4.024;2023-09-08T00:42:23;17.35;;;10.27;;
52274;SDS011;38228;50.940;4.024;2023-09-08T00:44:49;14.65;;;10.50;;
52274;SDS011;38228;50.940;4.024;2023-09-08T00:47:15;14.85;;;10.77;;
52274;SDS011;38228;50.940;4.024;2023-09-08T00:49:40;13.95;;;11.25;;
52274;SDS011;38228;50.940;4.024;2023-09-08T00:52:06;19.20;;;11.32;;
52274;SDS011;38228;50.940;4.024;2023-09-08T00:54:32;12.73;;;10.75;;
52274;SDS011;38228;50.940;4.024;2023-09-08T00:56:58;18.85;;;10.75;;
52274;SDS011;38228;50.940;4.024;2023-09-08T00:59:28;13.90;;;10.90;;
52274;SDS011;38228;50.940;4.024;2023-09-08T01:01:57;15.18;;;11.23;;
52274;SDS011;38228;50.940;4.024;2023-09-08T01:04:22;11.60;;;10.23;;
52274;SDS011;38228;50.940;4.024;2023-09-08T01:06:49;13.35;;;11.23;;
52274;SDS011;38228;50.940;4.024;2023-09-08T01:09:15;15.65;;;11.07;;
52274;SDS011;38228;50.940;4.024;2023-09-08T01:11:42;12.18;;;10.88;;
52274;SDS011;38228;50.940;4.024;2023-09-08T01:14:08;12.45;;;10.32;;
52274;SDS011;38228;50.940;4.024;2023-09-08T01:16:36;12.38;;;10.20;;
52274;SDS011;38228;50.940;4.024;2023-09-08T01:19:02;15.68;;;10.70;;
52274;SDS011;38228;50.940;4.024;2023-09-08T01:27:06;14.90;;;10.43;;
52274;SDS011;38228;50.940;4.024;2023-09-08T01:29:34;16.08;;;10.93;;
52274;SDS011;38228;50.940;4.024;2023-09-08T01:32:02;23.65;;;12.30;;
52274;SDS011;38228;50.940;4.024;2023-09-08T01:34:29;12.48;;;11.18;;
52274;SDS011;38228;50.940;4.024;2023-09-08T01:36:55;14.20;;;10.90;;
52274;SDS011;38228;50.940;4.024;2023-09-08T01:39:22;13.43;;;11.32;;
52274;SDS011;38228;50.940;4.024;2023-09-08T01:41:47;14.43;;;11.88;;
52274;SDS011;38228;50.940;4.024;2023-09-08T01:44:13;16.55;;;11.73;;
52274;SDS011;38228;50.940;4.024;2023-09-08T01:46:39;15.57;;;11.63;;
52274;SDS011;38228;50.940;4.024;2023-09-08T01:49:06;15.63;;;11.35;;
52274;SDS011;38228;50.940;4.024;2023-09-08T01:51:31;13.70;;;11.50;;
52274;SDS011;38228;50.940;4.024;2023-09-08T01:53:57;13.05;;;11.68;;
52274;SDS011;38228;50.940;4.024;2023-09-08T01:56:23;15.65;;;11.25;;
52274;SDS011;38228;50.940;4.024;2023-09-08T01:58:48;15.15;;;11.20;;
52274;SDS011;38228;50.940;4.024;2023-09-08T02:01:14;18.70;;;12.05;;
52274;SDS011;38228;50.940;4.024;2023-09-08T02:03:40;15.60;;;11.93;;
52274;SDS011;38228;50.940;4.024;2023-09-08T02:06:05;13.85;;;11.90;;
52274;SDS011;38228;50.940;4.024;2023-09-08T02:08:31;14.43;;;11.10;;
52274;SDS011;38228;50.940;4.024;2023-09-08T02:10:57;15.75;;;11.98;;
52274;SDS011;38228;50.940;4.024;2023-09-08T02:13:22;16.13;;;11.55;;
52274;SDS011;38228;50.940;4.024;2023-09-08T02:15:48;16.60;;;11.73;;
52274;SDS011;38228;50.940;4.024;2023-09-08T02:18:14;16.13;;;12.20;;
52274;SDS011;38228;50.940;4.024;2023-09-08T02:20:39;16.13;;;12.18;;
52274;SDS011;38228;50.940;4.024;2023-09-08T02:23:06;15.90;;;12.40;;
52274;SDS011;38228;50.940;4.024;2023-09-08T02:25:32;16.38;;;12.07;;
52274;SDS011;38228;50.940;4.024;2023-09-08T02:27:58;18.23;;;12.70;;
52274;SDS011;38228;50.940;4.024;2023-09-08T02:30:23;11.98;;;10.88;;
52274;SDS011;38228;50.940;4.024;2023-09-08T02:32:49;16.15;;;11.68;;
52274;SDS011;38228;50.940;4.024;2023-09-08T02:35:15;17.13;;;12.10;;
52274;SDS011;38228;50.940;4.024;2023-09-08T02:37:41;16.25;;;12.35;;
52274;SDS011;38228;50.940;4.024;2023-09-08T02:40:07;14.48;;;12.60;;
52274;SDS011;38228;50.940;4.024;2023-09-08T02:42:33;15.55;;;12.23;;
52274;SDS011;38228;50.940;4.024;2023-09-08T02:44:58;17.48;;;12.95;;
52274;SDS011;38228;50.940;4.024;2023-09-08T02:47:24;17.77;;;12.45;;
52274;SDS011;38228;50.940;4.024;2023-09-08T02:49:50;20.73;;;12.52;;
52274;SDS011;38228;50.940;4.024;2023-09-08T02:52:15;20.30;;;12.38;;
52274;SDS011;38228;50.940;4.024;2023-09-08T02:54:41;16.90;;;13.38;;
52274;SDS011;38228;50.940;4.024;2023-09-08T02:57:07;20.25;;;12.88;;
52274;SDS011;38228;50.940;4.024;2023-09-08T02:59:32;20.50;;;12.45;;
52274;SDS011;38228;50.940;4.024;2023-09-08T03:01:59;18.13;;;12.52;;
52274;SDS011;38228;50.940;4.024;2023-09-08T03:04:25;19.63;;;12.40;;
52274;SDS011;38228;50.940;4.024;2023-09-08T03:06:51;15.73;;;12.18;;
52274;SDS011;38228;50.940;4.024;2023-09-08T03:09:16;20.92;;;12.25;;
52274;SDS011;38228;50.940;4.024;2023-09-08T03:11:42;15.93;;;11.57;;
52274;SDS011;38228;50.940;4.024;2023-09-08T03:14:08;17.38;;;11.88;;
52274;SDS011;38228;50.940;4.024;2023-09-08T03:16:33;17.17;;;13.30;;
52274;SDS011;38228;50.940;4.024;2023-09-08T03:18:59;19.55;;;12.15;;
52274;SDS011;38228;50.940;4.024;2023-09-08T03:21:25;15.43;;;12.13;;
52274;SDS011;38228;50.940;4.024;2023-09-08T03:23:51;16.88;;;11.75;;
52274;SDS011;38228;50.940;4.024;2023-09-08T03:26:16;12.82;;;11.15;;
52274;SDS011;38228;50.940;4.024;2023-09-08T03:28:42;17.67;;;12.75;;
52274;SDS011;38228;50.940;4.024;2023-09-08T03:31:08;19.25;;;13.07;;
52274;SDS011;38228;50.940;4.024;2023-09-08T03:33:34;19.10;;;13.55;;
52274;SDS011;38228;50.940;4.024;2023-09-08T03:36:00;17.63;;;13.30;;
52274;SDS011;38228;50.940;4.024;2023-09-08T03:38:26;18.02;;;12.30;;
52274;SDS011;38228;50.940;4.024;2023-09-08T03:40:52;17.75;;;12.65;;
52274;SDS011;38228;50.940;4.024;2023-09-08T03:43:17;16.85;;;12.60;;
52274;SDS011;38228;50.940;4.024;2023-09-08T03:45:43;18.85;;;12.88;;
52274;SDS011;38228;50.940;4.024;2023-09-08T03:48:09;15.98;;;13.13;;
52274;SDS011;38228;50.940;4.024;2023-09-08T03:50:35;15.02;;;12.57;;
52274;SDS011;38228;50.940;4.024;2023-09-08T03:53:00;17.73;;;13.30;;
52274;SDS011;38228;50.940;4.024;2023-09-08T03:55:26;17.00;;;13.45;;
52274;SDS011;38228;50.940;4.024;2023-09-08T03:57:52;18.90;;;12.90;;
52274;SDS011;38228;50.940;4.024;2023-09-08T04:00:19;15.38;;;13.07;;
52274;SDS011;38228;50.940;4.024;2023-09-08T04:02:47;21.88;;;13.57;;
52274;SDS011;38228;50.940;4.024;2023-09-08T04:05:16;17.13;;;13.30;;
52274;SDS011;38228;50.940;4.024;2023-09-08T04:07:45;16.98;;;13.68;;
52274;SDS011;38228;50.940;4.024;2023-09-08T04:10:11;21.20;;;13.52;;
52274;SDS011;38228;50.940;4.024;2023-09-08T04:12:38;21.50;;;14.75;;
52274;SDS011;38228;50.940;4.024;2023-09-08T04:15:04;21.20;;;13.52;;
52274;SDS011;38228;50.940;4.024;2023-09-08T04:17:31;19.33;;;13.85;;
52274;SDS011;38228;50.940;4.024;2023-09-08T04:19:57;15.05;;;13.43;;
52274;SDS011;38228;50.940;4.024;2023-09-08T04:22:23;18.67;;;14.20;;
52274;SDS011;38228;50.940;4.024;2023-09-08T04:24:48;18.92;;;13.63;;
52274;SDS011;38228;50.940;4.024;2023-09-08T04:27:15;23.15;;;15.05;;
52274;SDS011;38228;50.940;4.024;2023-09-08T04:29:40;19.45;;;14.20;;
52274;SDS011;38228;50.940;4.024;2023-09-08T04:32:06;19.95;;;13.80;;
52274;SDS011;38228;50.940;4.024;2023-09-08T04:34:40;18.13;;;13.38;;
52274;SDS011;38228;50.940;4.024;2023-09-08T04:37:07;18.17;;;13.70;;
52274;SDS011;38228;50.940;4.024;2023-09-08T04:39:33;20.85;;;14.45;;
52274;SDS011;38228;50.940;4.024;2023-09-08T04:41:59;20.25;;;13.75;;
52274;SDS011;38228;50.940;4.024;2023-09-08T04:44:25;23.50;;;14.23;;
52274;SDS011;38228;50.940;4.024;2023-09-08T04:46:54;24.00;;;14.98;;
52274;SDS011;38228;50.940;4.024;2023-09-08T04:49:19;20.50;;;14.77;;
52274;SDS011;38228;50.940;4.024;2023-09-08T04:51:45;24.88;;;15.15;;
52274;SDS011;38228;50.940;4.024;2023-09-08T04:54:11;21.55;;;14.88;;
52274;SDS011;38228;50.940;4.024;2023-09-08T04:56:40;21.05;;;15.80;;
52274;SDS011;38228;50.940;4.024;2023-09-08T04:59:07;25.25;;;15.60;;
52274;SDS011;38228;50.940;4.024;2023-09-08T05:01:33;23.38;;;16.83;;
52274;SDS011;38228;50.940;4.024;2023-09-08T05:04:01;26.35;;;15.88;;
52274;SDS011;38228;50.940;4.024;2023-09-08T05:06:27;25.55;;;15.52;;
52274;SDS011;38228;50.940;4.024;2023-09-08T05:08:53;25.52;;;15.93;;
52274;SDS011;38228;50.940;4.024;2023-09-08T05:11:19;27.50;;;15.30;;
52274;SDS011;38228;50.940;4.024;2023-09-08T05:13:46;23.05;;;16.63;;
52274;SDS011;38228;50.940;4.024;2023-09-08T05:16:12;24.70;;;16.35;;
52274;SDS011;38228;50.940;4.024;2023-09-08T05:18:38;18.33;;;14.68;;
52274;SDS011;38228;50.940;4.024;2023-09-08T05:21:04;19.55;;;14.70;;
52274;SDS011;38228;50.940;4.024;2023-09-08T05:23:30;19.70;;;14.75;;
52274;SDS011;38228;50.940;4.024;2023-09-08T05:25:56;28.70;;;15.82;;
52274;SDS011;38228;50.940;4.024;2023-09-08T05:28:22;20.92;;;14.65;;
52274;SDS011;38228;50.940;4.024;2023-09-08T05:30:50;21.40;;;14.93;;
52274;SDS011;38228;50.940;4.024;2023-09-08T05:33:16;23.02;;;14.40;;
52274;SDS011;38228;50.940;4.024;2023-09-08T05:35:42;19.67;;;14.13;;
52274;SDS011;38228;50.940;4.024;2023-09-08T05:38:08;18.23;;;14.68;;
52274;SDS011;38228;50.940;4.024;2023-09-08T05:40:34;23.13;;;15.05;;
52274;SDS011;38228;50.940;4.024;2023-09-08T05:43:00;24.02;;;14.57;;
52274;SDS011;38228;50.940;4.024;2023-09-08T05:45:26;18.98;;;14.88;;
52274;SDS011;38228;50.940;4.024;2023-09-08T05:47:51;20.20;;;14.43;;
52274;SDS011;38228;50.940;4.024;2023-09-08T05:50:17;21.98;;;13.55;;
52274;SDS011;38228;50.940;4.024;2023-09-08T05:52:43;20.60;;;14.25;;
52274;SDS011;38228;50.940;4.024;2023-09-08T05:55:09;21.52;;;14.15;;
52274;SDS011;38228;50.940;4.024;2023-09-08T05:57:35;18.95;;;13.90;;
52274;SDS011;38228;50.940;4.024;2023-09-08T06:00:02;19.20;;;14.35;;
52274;SDS011;38228;50.940;4.024;2023-09-08T06:02:28;23.23;;;14.10;;
52274;SDS011;38228;50.940;4.024;2023-09-08T06:04:54;22.00;;;13.52;;
52274;SDS011;38228;50.940;4.024;2023-09-08T06:07:21;22.20;;;14.45;;
52274;SDS011;38228;50.940;4.024;2023-09-08T06:09:47;19.08;;;13.93;;
52274;SDS011;38228;50.940;4.024;2023-09-08T06:12:12;20.33;;;13.85;;
52274;SDS011;38228;50.940;4.024;2023-09-08T06:14:38;22.52;;;13.75;;
52274;SDS011;38228;50.940;4.024;2023-09-08T06:17:04;23.95;;;14.40;;
52274;SDS011;38228;50.940;4.024;2023-09-08T06:19:29;19.77;;;12.85;;
52274;SDS011;38228;50.940;4.024;2023-09-08T06:21:55;21.52;;;13.50;;
52274;SDS011;38228;50.940;4.024;2023-09-08T06:24:21;24.38;;;14.07;;
52274;SDS011;38228;50.940;4.024;2023-09-08T06:26:46;26.75;;;13.18;;
52274;SDS011;38228;50.940;4.024;2023-09-08T06:29:12;25.20;;;13.60;;
52274;SDS011;38228;50.940;4.024;2023-09-08T06:31:38;22.42;;;13.10;;
52274;SDS011;38228;50.940;4.024;2023-09-08T06:34:03;21.10;;;13.35;;
52274;SDS011;38228;50.940;4.024;2023-09-08T06:36:29;20.02;;;11.77;;
52274;SDS011;38228;50.940;4.024;2023-09-08T06:38:55;22.30;;;12.40;;
52274;SDS011;38228;50.940;4.024;2023-09-08T06:41:21;25.55;;;12.43;;
52274;SDS011;38228;50.940;4.024;2023-09-08T06:43:48;18.88;;;12.02;;
52274;SDS011;38228;50.940;4.024;2023-09-08T06:46:14;19.27;;;11.95;;
52274;SDS011;38228;50.940;4.024;2023-09-08T06:48:40;19.60;;;11.15;;
52274;SDS011;38228;50.940;4.024;2023-09-08T06:51:06;21.55;;;11.82;;
52274;SDS011;38228;50.940;4.024;2023-09-08T06:53:32;20.20;;;10.93;;
52274;SDS011;38228;50.940;4.024;2023-09-08T06:55:58;18.17;;;11.05;;
52274;SDS011;38228;50.940;4.024;2023-09-08T06:58:24;18.40;;;10.95;;
52274;SDS011;38228;50.940;4.024;2023-09-08T07:00:49;16.83;;;10.73;;
52274;SDS011;38228;50.940;4.024;2023-09-08T07:03:19;17.17;;;10.55;;
52274;SDS011;38228;50.940;4.024;2023-09-08T07:05:49;17.48;;;11.05;;
52274;SDS011;38228;50.940;4.024;2023-09-08T07:08:15;16.73;;;10.68;;
52274;SDS011;38228;50.940;4.024;2023-09-08T07:10:43;13.10;;;10.80;;
52274;SDS011;38228;50.940;4.024;2023-09-08T07:13:09;19.08;;;11.35;;
52274;SDS011;38228;50.940;4.024;2023-09-08T07:15:35;15.20;;;10.38;;
52274;SDS011;38228;50.940;4.024;2023-09-08T07:18:00;19.30;;;11.48;;
52274;SDS011;38228;50.940;4.024;2023-09-08T07:20:26;16.35;;;11.10;;
52274;SDS011;38228;50.940;4.024;2023-09-08T07:22:52;13.90;;;10.13;;
52274;SDS011;38228;50.940;4.024;2023-09-08T07:25:17;14.27;;;10.90;;
52274;SDS011;38228;50.940;4.024;2023-09-08T07:27:44;18.73;;;11.10;;
52274;SDS011;38228;50.940;4.024;2023-09-08T07:30:10;15.18;;;10.85;;
52274;SDS011;38228;50.940;4.024;2023-09-08T07:32:36;17.40;;;10.65;;
52274;SDS011;38228;50.940;4.024;2023-09-08T07:35:02;12.98;;;10.18;;
52274;SDS011;38228;50.940;4.024;2023-09-08T07:37:28;21.60;;;10.93;;
52274;SDS011;38228;50.940;4.024;2023-09-08T07:39:53;16.33;;;11.35;;
52274;SDS011;38228;50.940;4.024;2023-09-08T07:42:20;17.73;;;11.48;;
52274;SDS011;38228;50.940;4.024;2023-09-08T07:44:45;14.23;;;10.00;;
52274;SDS011;38228;50.940;4.024;2023-09-08T07:47:12;13.32;;;10.77;;
52274;SDS011;38228;50.940;4.024;2023-09-08T07:49:38;14.27;;;10.10;;
52274;SDS011;38228;50.940;4.024;2023-09-08T07:52:03;14.77;;;10.60;;
52274;SDS011;38228;50.940;4.024;2023-09-08T07:54:31;14.38;;;10.30;;
52274;SDS011;38228;50.940;4.024;2023-09-08T07:56:56;13.85;;;10.07;;
52274;SDS011;38228;50.940;4.024;2023-09-08T07:59:22;17.70;;;10.52;;
52274;SDS011;38228;50.940;4.024;2023-09-08T08:01:48;15.48;;;10.55;;
52274;SDS011;38228;50.940;4.024;2023-09-08T08:04:14;21.90;;;10.65;;
52274;SDS011;38228;50.940;4.024;2023-09-08T08:06:40;24.45;;;10.98;;
52274;SDS011;38228;50.940;4.024;2023-09-08T08:09:05;15.60;;;9.50;;
52274;SDS011;38228;50.940;4.024;2023-09-08T08:11:31;14.38;;;8.77;;
52274;SDS011;38228;50.940;4.024;2023-09-08T08:13:57;18.85;;;9.50;;
52274;SDS011;38228;50.940;4.024;2023-09-08T08:16:22;19.80;;;9.30;;
52274;SDS011;38228;50.940;4.024;2023-09-08T08:18:49;16.92;;;9.43;;
52274;SDS011;38228;50.940;4.024;2023-09-08T08:21:15;15.15;;;8.95;;
52274;SDS011;38228;50.940;4.024;2023-09-08T08:23:41;12.32;;;9.07;;
52274;SDS011;38228;50.940;4.024;2023-09-08T08:26:06;17.90;;;10.05;;
52274;SDS011;38228;50.940;4.024;2023-09-08T08:28:32;16.88;;;8.57;;
52274;SDS011;38228;50.940;4.024;2023-09-08T08:30:58;16.50;;;8.65;;
52274;SDS011;38228;50.940;4.024;2023-09-08T08:33:23;15.27;;;8.80;;
52274;SDS011;38228;50.940;4.024;2023-09-08T08:35:51;13.98;;;8.02;;
52274;SDS011;38228;50.940;4.024;2023-09-08T08:38:18;13.10;;;8.10;;
52274;SDS011;38228;50.940;4.024;2023-09-08T08:40:44;15.73;;;8.40;;
52274;SDS011;38228;50.940;4.024;2023-09-08T08:43:10;16.17;;;7.85;;
52274;SDS011;38228;50.940;4.024;2023-09-08T08:45:37;12.32;;;7.95;;
52274;SDS011;38228;50.940;4.024;2023-09-08T08:48:04;14.15;;;8.68;;
52274;SDS011;38228;50.940;4.024;2023-09-08T08:50:35;19.80;;;8.57;;
52274;SDS011;38228;50.940;4.024;2023-09-08T08:53:01;15.77;;;7.75;;
52274;SDS011;38228;50.940;4.024;2023-09-08T08:55:28;16.15;;;8.35;;
52274;SDS011;38228;50.940;4.024;2023-09-08T08:57:55;13.50;;;8.30;;
52274;SDS011;38228;50.940;4.024;2023-09-08T09:00:27;13.82;;;8.07;;
52274;SDS011;38228;50.940;4.024;2023-09-08T09:02:54;17.40;;;7.80;;
52274;SDS011;38228;50.940;4.024;2023-09-08T09:05:23;11.93;;;7.88;;
52274;SDS011;38228;50.940;4.024;2023-09-08T09:07:50;10.38;;;7.70;;
52274;SDS011;38228;50.940;4.024;2023-09-08T09:10:16;15.25;;;7.85;;
52274;SDS011;38228;50.940;4.024;2023-09-08T09:12:42;14.93;;;7.85;;
52274;SDS011;38228;50.940;4.024;2023-09-08T09:15:09;16.48;;;8.35;;
52274;SDS011;38228;50.940;4.024;2023-09-08T09:17:35;9.75;;;6.95;;
52274;SDS011;38228;50.940;4.024;2023-09-08T09:22:44;14.23;;;7.90;;
52274;SDS011;38228;50.940;4.024;2023-09-08T09:25:20;13.38;;;7.75;;
52274;SDS011;38228;50.940;4.024;2023-09-08T09:27:59;9.80;;;7.18;;
52274;SDS011;38228;50.940;4.024;2023-09-08T09:30:26;10.02;;;7.22;;
52274;SDS011;38228;50.940;4.024;2023-09-08T09:32:59;11.63;;;7.43;;
52274;SDS011;38228;50.940;4.024;2023-09-08T09:35:45;13.23;;;7.22;;
52274;SDS011;38228;50.940;4.024;2023-09-08T09:38:12;16.95;;;7.10;;
52274;SDS011;38228;50.940;4.024;2023-09-08T09:40:39;11.57;;;7.20;;
52274;SDS011;38228;50.940;4.024;2023-09-08T09:43:05;14.48;;;7.22;;
52274;SDS011;38228;50.940;4.024;2023-09-08T09:45:33;48.03;;;10.35;;
52274;SDS011;38228;50.940;4.024;2023-09-08T09:47:59;15.65;;;7.47;;
52274;SDS011;38228;50.940;4.024;2023-09-08T09:50:35;18.08;;;7.10;;
52274;SDS011;38228;50.940;4.024;2023-09-08T09:53:07;15.25;;;6.80;;
52274;SDS011;38228;50.940;4.024;2023-09-08T09:55:43;15.40;;;7.60;;
52274;SDS011;38228;50.940;4.024;2023-09-08T09:58:10;15.18;;;6.20;;
52274;SDS011;38228;50.940;4.024;2023-09-08T10:00:36;19.08;;;7.28;;
52274;SDS011;38228;50.940;4.024;2023-09-08T10:03:05;12.75;;;7.00;;
52274;SDS011;38228;50.940;4.024;2023-09-08T10:05:31;12.20;;;6.85;;
52274;SDS011;38228;50.940;4.024;2023-09-08T10:07:57;14.07;;;6.45;;
52274;SDS011;38228;50.940;4.024;2023-09-08T10:10:24;17.00;;;6.85;;
52274;SDS011;38228;50.940;4.024;2023-09-08T10:12:56;13.40;;;6.30;;
52274;SDS011;38228;50.940;4.024;2023-09-08T10:15:27;10.85;;;5.70;;
52274;SDS011;38228;50.940;4.024;2023-09-08T10:17:55;13.95;;;5.90;;
52274;SDS011;38228;50.940;4.024;2023-09-08T10:20:26;13.27;;;5.70;;
52274;SDS011;38228;50.940;4.024;2023-09-08T10:23:01;10.25;;;6.10;;
52274;SDS011;38228;50.940;4.024;2023-09-08T10:25:34;17.55;;;5.93;;
52274;SDS011;38228;50.940;4.024;2023-09-08T10:28:03;14.20;;;6.28;;
52274;SDS011;38228;50.940;4.024;2023-09-08T10:30:29;11.77;;;5.28;;
52274;SDS011;38228;50.940;4.024;2023-09-08T10:32:56;13.90;;;5.63;;
52274;SDS011;38228;50.940;4.024;2023-09-08T10:35:22;6.60;;;4.90;;
52274;SDS011;38228;50.940;4.024;2023-09-08T10:37:48;9.63;;;5.20;;
52274;SDS011;38228;50.940;4.024;2023-09-08T10:40:24;8.07;;;4.55;;
52274;SDS011;38228;50.940;4.024;2023-09-08T10:43:11;9.05;;;4.80;;
52274;SDS011;38228;50.940;4.024;2023-09-08T10:45:37;6.35;;;4.90;;
52274;SDS011;38228;50.940;4.024;2023-09-08T10:48:04;14.50;;;5.03;;
52274;SDS011;38228;50.940;4.024;2023-09-08T10:50:32;12.73;;;5.40;;
52274;SDS011;38228;50.940;4.024;2023-09-08T10:53:13;7.75;;;5.00;;
52274;SDS011;38228;50.940;4.024;2023-09-08T10:55:41;9.48;;;5.20;;
52274;SDS011;38228;50.940;4.024;2023-09-08T10:58:30;11.02;;;6.25;;
52274;SDS011;38228;50.940;4.024;2023-09-08T11:01:12;7.22;;;5.03;;
52274;SDS011;38228;50.940;4.024;2023-09-08T11:06:06;10.23;;;5.00;;
52274;SDS011;38228;50.940;4.024;2023-09-08T11:08:40;8.73;;;4.95;;
52274;SDS011;38228;50.940;4.024;2023-09-08T11:11:07;6.95;;;4.85;;
52274;SDS011;38228;50.940;4.024;2023-09-08T11:13:35;9.95;;;5.60;;
52274;SDS011;38228;50.940;4.024;2023-09-08T11:16:01;13.50;;;5.00;;
52274;SDS011;38228;50.940;4.024;2023-09-08T11:18:30;10.60;;;4.65;;
52274;SDS011;38228;50.940;4.024;2023-09-08T11:20:59;7.93;;;4.03;;
52274;SDS011;38228;50.940;4.024;2023-09-08T11:23:27;7.95;;;4.90;;
52274;SDS011;38228;50.940;4.024;2023-09-08T11:25:53;14.00;;;4.65;;
52274;SDS011;38228;50.940;4.024;2023-09-08T11:28:19;6.90;;;4.50;;
52274;SDS011;38228;50.940;4.024;2023-09-08T11:30:47;6.13;;;4.22;;
52274;SDS011;38228;50.940;4.024;2023-09-08T11:33:14;8.63;;;4.60;;
52274;SDS011;38228;50.940;4.024;2023-09-08T11:35:46;8.32;;;5.18;;
52274;SDS011;38228;50.940;4.024;2023-09-08T11:38:13;10.40;;;4.45;;
52274;SDS011;38228;50.940;4.024;2023-09-08T11:40:39;12.70;;;4.78;;
52274;SDS011;38228;50.940;4.024;2023-09-08T11:43:05;9.25;;;4.50;;
52274;SDS011;38228;50.940;4.024;2023-09-08T11:45:35;9.13;;;4.93;;
52274;SDS011;38228;50.940;4.024;2023-09-08T11:48:01;11.20;;;4.40;;
52274;SDS011;38228;50.940;4.024;2023-09-08T11:50:30;8.88;;;5.05;;
52274;SDS011;38228;50.940;4.024;2023-09-08T11:52:56;7.82;;;4.43;;
52274;SDS011;38228;50.940;4.024;2023-09-08T11:55:27;12.90;;;4.95;;
52274;SDS011;38228;50.940;4.024;2023-09-08T11:57:54;8.82;;;4.85;;
52274;SDS011;38228;50.940;4.024;2023-09-08T12:00:25;13.98;;;4.97;;
52274;SDS011;38228;50.940;4.024;2023-09-08T12:02:52;10.88;;;4.13;;
52274;SDS011;38228;50.940;4.024;2023-09-08T12:05:22;10.82;;;4.30;;
52274;SDS011;38228;50.940;4.024;2023-09-08T12:07:50;9.60;;;4.45;;
52274;SDS011;38228;50.940;4.024;2023-09-08T12:10:16;8.35;;;3.85;;
52274;SDS011;38228;50.940;4.024;2023-09-08T12:12:51;9.30;;;4.20;;
52274;SDS011;38228;50.940;4.024;2023-09-08T12:15:36;14.90;;;4.50;;
52274;SDS011;38228;50.940;4.024;2023-09-08T12:18:04;8.43;;;4.20;;
52274;SDS011;38228;50.940;4.024;2023-09-08T12:20:31;8.10;;;4.78;;
52274;SDS011;38228;50.940;4.024;2023-09-08T12:23:04;7.50;;;4.43;;
52274;SDS011;38228;50.940;4.024;2023-09-08T12:25:45;7.07;;;4.15;;
52274;SDS011;38228;50.940;4.024;2023-09-08T12:28:12;10.13;;;4.50;;
52274;SDS011;38228;50.940;4.024;2023-09-08T12:30:38;9.52;;;4.55;;
52274;SDS011;38228;50.940;4.024;2023-09-08T12:33:04;10.27;;;4.50;;
52274;SDS011;38228;50.940;4.024;2023-09-08T12:35:30;7.90;;;4.50;;
52274;SDS011;38228;50.940;4.024;2023-09-08T12:38:05;11.40;;;4.47;;
52274;SDS011;38228;50.940;4.024;2023-09-08T12:40:36;10.40;;;4.63;;
52274;SDS011;38228;50.940;4.024;2023-09-08T12:43:03;9.70;;;4.55;;
52274;SDS011;38228;50.940;4.024;2023-09-08T12:45:29;6.47;;;4.30;;
52274;SDS011;38228;50.940;4.024;2023-09-08T12:47:57;12.63;;;4.43;;
52274;SDS011;38228;50.940;4.024;2023-09-08T12:50:25;8.07;;;4.30;;
52274;SDS011;38228;50.940;4.024;2023-09-08T12:52:51;8.88;;;4.55;;
52274;SDS011;38228;50.940;4.024;2023-09-08T12:55:17;5.93;;;4.45;;
52274;SDS011;38228;50.940;4.024;2023-09-08T12:57:42;8.57;;;4.05;;
52274;SDS011;38228;50.940;4.024;2023-09-08T13:00:08;12.20;;;4.50;;
52274;SDS011;38228;50.940;4.024;2023-09-08T13:02:34;14.32;;;5.38;;
52274;SDS011;38228;50.940;4.024;2023-09-08T13:05:01;11.05;;;4.60;;
52274;SDS011;38228;50.940;4.024;2023-09-08T13:07:27;9.98;;;3.50;;
52274;SDS011;38228;50.940;4.024;2023-09-08T13:09:53;16.75;;;4.28;;
52274;SDS011;38228;50.940;4.024;2023-09-08T13:12:19;9.68;;;4.22;;
52274;SDS011;38228;50.940;4.024;2023-09-08T13:14:45;15.75;;;4.20;;
52274;SDS011;38228;50.940;4.024;2023-09-08T13:17:11;11.95;;;4.45;;
52274;SDS011;38228;50.940;4.024;2023-09-08T13:19:37;19.13;;;4.15;;
52274;SDS011;38228;50.940;4.024;2023-09-08T13:22:03;13.77;;;4.07;;
52274;SDS011;38228;50.940;4.024;2023-09-08T13:24:29;19.40;;;4.57;;
52274;SDS011;38228;50.940;4.024;2023-09-08T13:26:55;18.45;;;4.47;;
52274;SDS011;38228;50.940;4.024;2023-09-08T13:29:21;15.00;;;4.40;;
52274;SDS011;38228;50.940;4.024;2023-09-08T13:31:47;17.42;;;4.75;;
52274;SDS011;38228;50.940;4.024;2023-09-08T13:34:13;10.27;;;4.20;;
52274;SDS011;38228;50.940;4.024;2023-09-08T13:36:39;13.75;;;4.72;;
52274;SDS011;38228;50.940;4.024;2023-09-08T13:39:04;12.63;;;4.30;;
52274;SDS011;38228;50.940;4.024;2023-09-08T13:44:22;13.30;;;4.32;;
52274;SDS011;38228;50.940;4.024;2023-09-08T13:46:49;16.33;;;4.55;;
52274;SDS011;38228;50.940;4.024;2023-09-08T13:49:15;11.32;;;4.68;;
52274;SDS011;38228;50.940;4.024;2023-09-08T13:51:42;17.90;;;5.05;;
52274;SDS011;38228;50.940;4.024;2023-09-08T13:54:08;16.55;;;4.75;;
52274;SDS011;38228;50.940;4.024;2023-09-08T13:56:34;14.15;;;5.28;;
52274;SDS011;38228;50.940;4.024;2023-09-08T13:59:00;16.08;;;5.32;;
52274;SDS011;38228;50.940;4.024;2023-09-08T14:01:26;19.02;;;6.20;;
52274;SDS011;38228;50.940;4.024;2023-09-08T14:03:54;18.45;;;4.90;;
52274;SDS011;38228;50.940;4.024;2023-09-08T14:06:22;14.68;;;5.30;;
52274;SDS011;38228;50.940;4.024;2023-09-08T14:08:49;15.55;;;5.65;;
52274;SDS011;38228;50.940;4.024;2023-09-08T14:11:15;12.15;;;5.05;;
52274;SDS011;38228;50.940;4.024;2023-09-08T14:13:41;12.43;;;5.55;;
52274;SDS011;38228;50.940;4.024;2023-09-08T14:16:08;14.85;;;5.45;;
52274;SDS011;38228;50.940;4.024;2023-09-08T14:18:33;14.95;;;5.72;;
52274;SDS011;38228;50.940;4.024;2023-09-08T14:20:59;20.05;;;5.57;;
52274;SDS011;38228;50.940;4.024;2023-09-08T14:23:25;13.65;;;5.65;;
52274;SDS011;38228;50.940;4.024;2023-09-08T14:25:51;16.83;;;5.78;;
52274;SDS011;38228;50.940;4.024;2023-09-08T14:28:17;14.70;;;5.80;;
52274;SDS011;38228;50.940;4.024;2023-09-08T14:30:43;11.23;;;5.15;;
52274;SDS011;38228;50.940;4.024;2023-09-08T14:33:09;11.80;;;4.63;;
52274;SDS011;38228;50.940;4.024;2023-09-08T14:35:35;14.45;;;4.45;;
52274;SDS011;38228;50.940;4.024;2023-09-08T14:38:05;10.63;;;4.40;;
52274;SDS011;38228;50.940;4.024;2023-09-08T14:40:33;16.02;;;4.88;;